createdAt,value
2023-04-19T00:00:12.922Z,99.90
2023-04-19T00:02:42.961Z,99.90
2023-04-19T00:05:12.182Z,99.90
2023-04-19T00:07:39.817Z,99.90
2023-04-19T00:10:07.801Z,99.90
2023-04-19T00:12:35.464Z,99.90
2023-04-19T00:17:44.360Z,99.90
2023-04-19T00:20:16.375Z,99.90
2023-04-19T00:22:43.358Z,99.90
2023-04-19T00:25:14.677Z,99.90
2023-04-19T00:27:42.086Z,99.90
2023-04-19T00:30:09.887Z,99.90
2023-04-19T00:32:37.569Z,99.90
2023-04-19T00:35:05.246Z,99.90
2023-04-19T00:37:32.433Z,99.90
2023-04-19T00:39:59.800Z,99.90
2023-04-19T00:42:27.177Z,99.90
2023-04-19T00:44:55.101Z,99.90
2023-04-19T00:47:24.082Z,99.90
2023-04-19T00:49:51.471Z,99.90
2023-04-19T00:52:19.019Z,99.90
2023-04-19T00:54:46.990Z,99.90
2023-04-19T00:57:15.711Z,99.90
2023-04-19T00:59:43.210Z,99.90
2023-04-19T01:02:10.590Z,99.90
2023-04-19T01:04:38.278Z,99.90
2023-04-19T01:07:05.889Z,99.90
2023-04-19T01:09:33.538Z,99.90
2023-04-19T01:12:03.834Z,99.90
2023-04-19T01:14:34.409Z,99.90
2023-04-19T01:17:01.882Z,99.90
2023-04-19T01:19:29.665Z,99.90
2023-04-19T01:21:58.855Z,99.90
2023-04-19T01:24:26.094Z,99.90
2023-04-19T01:26:53.851Z,99.90
2023-04-19T01:29:25.798Z,99.90
2023-04-19T01:31:56.656Z,99.90
2023-04-19T01:34:23.863Z,99.90
2023-04-19T01:36:51.184Z,99.90
2023-04-19T01:39:21.894Z,99.90
2023-04-19T01:41:49.386Z,99.90
2023-04-19T01:44:16.922Z,99.90
2023-04-19T01:46:45.123Z,99.90
2023-04-19T01:49:12.454Z,99.90
2023-04-19T01:51:40.148Z,99.90
2023-04-19T01:54:07.655Z,99.90
2023-04-19T01:56:35.201Z,99.90
2023-04-19T01:59:02.867Z,99.90
2023-04-19T02:01:30.471Z,99.90
2023-04-19T02:03:58.167Z,99.90
2023-04-19T02:06:27.186Z,99.90
2023-04-19T02:08:54.532Z,99.90
2023-04-19T02:11:21.790Z,99.90
2023-04-19T02:13:49.511Z,99.90
2023-04-19T02:16:17.209Z,99.90
2023-04-19T02:18:44.488Z,99.90
2023-04-19T02:21:11.843Z,99.90
2023-04-19T02:23:39.417Z,99.90
2023-04-19T02:26:07.255Z,99.90
2023-04-19T02:28:34.727Z,99.90
2023-04-19T02:31:06.564Z,99.90
2023-04-19T02:33:33.849Z,99.90
2023-04-19T02:36:01.193Z,99.90
2023-04-19T02:38:28.728Z,99.90
2023-04-19T02:41:01.201Z,99.90
2023-04-19T02:43:30.909Z,99.90
2023-04-19T02:45:59.144Z,99.90
2023-04-19T02:48:27.159Z,99.90
2023-04-19T02:50:55.118Z,99.90
2023-04-19T02:53:22.807Z,99.90
2023-04-19T02:55:50.756Z,99.90
2023-04-19T02:58:18.344Z,99.90
2023-04-19T03:00:46.045Z,99.90
2023-04-19T03:03:13.959Z,99.90
2023-04-19T03:05:41.641Z,99.90
2023-04-19T03:08:11.056Z,99.90
2023-04-19T03:10:38.333Z,99.90
2023-04-19T03:13:05.703Z,99.90
2023-04-19T03:15:33.169Z,99.90
2023-04-19T03:18:00.678Z,99.90
2023-04-19T03:20:27.990Z,99.90
2023-04-19T03:22:55.561Z,99.90
2023-04-19T03:25:22.893Z,99.90
2023-04-19T03:27:51.917Z,99.90
2023-04-19T03:30:19.687Z,99.90
2023-04-19T03:32:48.317Z,99.90
2023-04-19T03:35:16.185Z,99.90
2023-04-19T03:37:43.920Z,99.90
2023-04-19T03:40:11.438Z,99.90
2023-04-19T03:42:38.991Z,99.90
2023-04-19T03:45:07.031Z,99.90
2023-04-19T03:47:34.863Z,99.90
2023-04-19T03:50:02.373Z,99.90
2023-04-19T03:52:29.663Z,99.90
2023-04-19T03:54:57.087Z,99.90
2023-04-19T03:57:24.767Z,99.90
2023-04-19T03:59:52.398Z,99.90
2023-04-19T04:02:19.816Z,99.90
2023-04-19T04:04:47.399Z,99.90
2023-04-19T04:07:15.409Z,99.90
2023-04-19T04:09:43.479Z,99.90
2023-04-19T04:12:12.990Z,99.90
2023-04-19T04:14:40.436Z,99.90
2023-04-19T04:17:07.725Z,99.90
2023-04-19T04:19:35.450Z,99.90
2023-04-19T04:22:02.991Z,99.90
2023-04-19T04:24:33.102Z,99.90
2023-04-19T04:27:03.523Z,99.90
2023-04-19T04:29:33.349Z,99.90
2023-04-19T04:32:01.419Z,99.90
2023-04-19T04:34:28.578Z,99.90
2023-04-19T04:36:56.099Z,99.90
2023-04-19T04:39:24.447Z,99.90
2023-04-19T04:41:53.357Z,99.90
2023-04-19T04:44:21.067Z,99.90
2023-04-19T04:46:48.317Z,99.90
2023-04-19T04:49:15.877Z,99.90
2023-04-19T04:51:43.217Z,99.90
2023-04-19T04:54:10.285Z,99.90
2023-04-19T04:56:37.766Z,99.90
2023-04-19T04:59:05.406Z,99.90
2023-04-19T05:01:33.008Z,99.90
2023-04-19T05:04:00.788Z,99.90
2023-04-19T05:06:28.447Z,99.90
2023-04-19T05:08:57.753Z,99.90
2023-04-19T05:11:25.507Z,99.90
2023-04-19T05:13:52.846Z,99.90
2023-04-19T05:16:22.381Z,99.90
2023-04-19T05:18:52.290Z,99.90
2023-04-19T05:21:19.878Z,99.90
2023-04-19T05:23:47.131Z,99.90
2023-04-19T05:26:16.422Z,99.90
2023-04-19T05:28:45.861Z,99.90
2023-04-19T05:31:13.874Z,99.90
2023-04-19T05:33:41.367Z,99.90
2023-04-19T05:36:09.540Z,99.90
2023-04-19T05:38:41.975Z,99.90
2023-04-19T05:41:11.961Z,99.90
2023-04-19T05:43:42.290Z,99.90
2023-04-19T05:46:11.782Z,99.90
2023-04-19T05:48:42.500Z,99.90
2023-04-19T05:51:15.021Z,99.90
2023-04-19T05:53:44.168Z,99.90
2023-04-19T05:56:14.847Z,99.90
2023-04-19T05:58:42.159Z,99.90
2023-04-19T06:01:18.058Z,99.90
2023-04-19T06:03:46.277Z,99.90
2023-04-19T06:08:55.177Z,99.90
2023-04-19T06:11:31.537Z,99.90
2023-04-19T06:14:06.534Z,99.90
2023-04-19T06:16:33.769Z,99.90
2023-04-19T06:19:01.356Z,99.90
2023-04-19T06:21:32.071Z,99.90
2023-04-19T06:24:09.211Z,99.90
2023-04-19T06:26:36.845Z,99.90
2023-04-19T06:29:15.824Z,99.90
2023-04-19T06:31:46.446Z,99.90
2023-04-19T06:34:19.122Z,99.90
2023-04-19T06:36:57.814Z,99.90
2023-04-19T06:39:25.160Z,99.90
2023-04-19T06:42:04.013Z,99.90
2023-04-19T06:44:31.739Z,99.90
2023-04-19T06:46:59.664Z,99.90
2023-04-19T06:49:27.235Z,99.90
2023-04-19T06:51:55.008Z,99.90
2023-04-19T06:54:22.448Z,99.90
2023-04-19T06:56:50.920Z,99.90
2023-04-19T06:59:20.134Z,99.90
2023-04-19T07:01:48.440Z,99.90
2023-04-19T07:04:16.142Z,99.90
2023-04-19T07:06:43.583Z,99.90
2023-04-19T07:09:10.899Z,99.90
2023-04-19T07:11:38.356Z,99.90
2023-04-19T07:14:06.302Z,99.90
2023-04-19T07:16:33.743Z,99.90
2023-04-19T07:19:13.353Z,99.90
2023-04-19T07:21:41.091Z,99.90
2023-04-19T07:24:08.713Z,99.90
2023-04-19T07:26:36.281Z,99.90
2023-04-19T07:29:03.544Z,99.90
2023-04-19T07:31:31.217Z,99.90
2023-04-19T07:34:02.499Z,99.90
2023-04-19T07:36:30.000Z,99.90
2023-04-19T07:38:57.761Z,99.90
2023-04-19T07:41:29.851Z,99.90
2023-04-19T07:43:57.101Z,99.90
2023-04-19T07:46:25.496Z,99.90
2023-04-19T07:48:53.348Z,99.90
2023-04-19T07:51:21.458Z,99.90
2023-04-19T07:53:49.177Z,99.90
2023-04-19T07:56:17.050Z,99.90
2023-04-19T07:58:50.852Z,99.90
2023-04-19T08:01:24.284Z,99.90
2023-04-19T08:03:52.074Z,99.90
2023-04-19T08:06:22.045Z,99.90
2023-04-19T08:08:50.208Z,99.90
2023-04-19T08:11:20.612Z,99.90
2023-04-19T08:14:06.709Z,99.90
2023-04-19T08:19:16.182Z,99.90
2023-04-19T08:21:44.757Z,99.90
2023-04-19T08:24:15.108Z,99.90
2023-04-19T08:26:43.050Z,99.90
2023-04-19T08:29:10.486Z,99.90
2023-04-19T08:31:38.397Z,99.90
2023-04-19T08:34:05.710Z,99.90
2023-04-19T08:36:41.171Z,99.90
2023-04-19T08:39:24.618Z,99.90
2023-04-19T08:42:10.960Z,99.90
2023-04-19T08:45:17.061Z,99.90
2023-04-19T08:50:24.593Z,99.90
2023-04-19T08:53:05.144Z,99.90
2023-04-19T08:55:59.122Z,99.90
2023-04-19T09:01:17.061Z,99.90
2023-04-19T09:04:09.597Z,99.90
2023-04-19T09:06:45.578Z,99.90
2023-04-19T09:11:52.965Z,99.90
2023-04-19T09:14:30.473Z,99.90
2023-04-19T09:17:15.115Z,99.90
2023-04-19T09:19:50.320Z,99.90
2023-04-19T09:22:18.276Z,99.90
2023-04-19T09:25:22.526Z,99.90
2023-04-19T09:27:34.409Z,99.90
2023-04-19T09:30:03.130Z,99.90
2023-04-19T09:32:49.223Z,99.90
2023-04-19T09:35:17.178Z,99.90
2023-04-19T09:38:05.734Z,99.90
2023-04-19T09:40:34.260Z,99.90
2023-04-19T09:45:42.386Z,99.90
2023-04-19T09:48:11.040Z,99.90
2023-04-19T09:51:00.227Z,99.90
2023-04-19T09:53:34.635Z,99.90
2023-04-19T09:56:03.411Z,99.90
2023-04-19T09:58:46.229Z,99.90
2023-04-19T10:01:18.985Z,99.90
2023-04-19T10:03:52.748Z,99.90
2023-04-19T10:08:57.539Z,99.80
2023-04-19T10:11:28.081Z,99.80
2023-04-19T10:13:57.383Z,99.90
2023-04-19T10:16:25.614Z,99.90
2023-04-19T10:18:56.083Z,99.90
2023-04-19T10:21:24.634Z,99.90
2023-04-19T10:23:52.050Z,99.90
2023-04-19T10:26:22.722Z,99.90
2023-04-19T10:28:50.085Z,99.90
2023-04-19T10:31:23.958Z,99.90
2023-04-19T10:33:52.333Z,99.90
2023-04-19T10:39:02.437Z,99.90
2023-04-19T10:41:59.680Z,99.90
2023-04-19T10:44:27.039Z,99.90
2023-04-19T10:46:55.187Z,99.90
2023-04-19T10:49:24.150Z,99.90
2023-04-19T10:51:55.151Z,99.90
2023-04-19T10:54:29.627Z,99.90
2023-04-19T10:57:06.154Z,99.90
2023-04-19T10:59:37.990Z,99.60
2023-04-19T11:02:25.306Z,99.60
2023-04-19T11:04:52.684Z,98.30
2023-04-19T11:07:21.634Z,97.60
2023-04-19T11:09:52.268Z,97.90
2023-04-19T11:12:21.191Z,97.80
2023-04-19T11:14:52.316Z,97.00
2023-04-19T11:17:28.188Z,97.00
2023-04-19T11:19:56.130Z,96.60
2023-04-19T11:22:34.470Z,96.30
2023-04-19T11:25:35.375Z,95.20
2023-04-19T11:28:02.912Z,94.80
2023-04-19T11:30:31.164Z,95.20
2023-04-19T11:33:03.076Z,95.10
2023-04-19T11:35:30.960Z,94.40
2023-04-19T11:38:00.029Z,94.20
2023-04-19T11:40:38.349Z,94.00
2023-04-19T11:43:06.332Z,93.80
2023-04-19T11:45:39.592Z,93.80
2023-04-19T11:48:16.260Z,94.80
2023-04-19T11:50:45.221Z,94.20
2023-04-19T11:53:22.860Z,93.70
2023-04-19T11:55:58.768Z,93.20
2023-04-19T11:58:33.229Z,92.90
2023-04-19T12:01:08.659Z,91.50
2023-04-19T12:03:41.518Z,90.80
2023-04-19T12:06:14.023Z,89.90
2023-04-19T12:08:49.519Z,90.50
2023-04-19T12:11:24.900Z,90.20
2023-04-19T12:14:15.052Z,88.80
2023-04-19T12:16:43.066Z,88.40
2023-04-19T12:19:14.523Z,88.80
2023-04-19T12:21:42.265Z,86.40
2023-04-19T12:24:10.855Z,87.10
2023-04-19T12:26:59.566Z,84.40
2023-04-19T12:29:40.942Z,83.80
2023-04-19T12:32:08.241Z,83.60
2023-04-19T12:34:35.774Z,81.00
2023-04-19T12:37:04.980Z,80.00
2023-04-19T12:39:32.111Z,78.70
2023-04-19T12:42:01.846Z,78.00
2023-04-19T12:44:29.526Z,78.80
2023-04-19T12:46:59.762Z,77.80
2023-04-19T12:49:27.046Z,77.90
2023-04-19T12:51:55.914Z,77.70
2023-04-19T12:54:25.114Z,78.40
2023-04-19T12:56:54.758Z,78.20
2023-04-19T12:59:22.269Z,78.90
2023-04-19T13:01:50.126Z,78.50
2023-04-19T13:04:18.454Z,79.70
2023-04-19T13:06:48.956Z,79.70
2023-04-19T13:09:16.338Z,79.60
2023-04-19T13:11:43.846Z,79.30
2023-04-19T13:14:10.937Z,81.30
2023-04-19T13:16:38.002Z,81.60
2023-04-19T13:19:06.076Z,81.70
2023-04-19T13:21:34.072Z,81.70
2023-04-19T13:24:01.767Z,78.20
2023-04-19T13:26:29.337Z,79.10
2023-04-19T13:28:56.965Z,78.50
2023-04-19T13:31:24.653Z,77.50
2023-04-19T13:33:52.087Z,76.30
2023-04-19T13:36:19.693Z,75.70
2023-04-19T13:38:50.333Z,74.70
2023-04-19T13:41:17.604Z,74.30
2023-04-19T13:43:46.257Z,73.30
2023-04-19T13:46:13.997Z,71.10
2023-04-19T13:48:41.696Z,72.70
2023-04-19T13:51:09.070Z,73.30
2023-04-19T13:53:39.795Z,71.20
2023-04-19T13:56:09.736Z,71.90
2023-04-19T13:58:37.249Z,69.70
2023-04-19T14:01:04.884Z,71.00
2023-04-19T14:03:34.880Z,71.40
2023-04-19T14:06:02.402Z,71.80
2023-04-19T14:08:30.184Z,72.00
2023-04-19T14:10:57.996Z,72.50
2023-04-19T14:13:25.786Z,74.50
2023-04-19T14:15:53.233Z,72.50
2023-04-19T14:18:20.419Z,73.10
2023-04-19T14:20:50.287Z,73.10
2023-04-19T14:23:17.954Z,72.20
2023-04-19T14:25:45.611Z,71.10
2023-04-19T14:28:13.165Z,70.90
2023-04-19T14:30:40.830Z,72.30
2023-04-19T14:33:08.317Z,72.70
2023-04-19T14:35:35.885Z,73.90
2023-04-19T14:38:03.509Z,72.80
2023-04-19T14:40:31.216Z,72.70
2023-04-19T14:42:58.420Z,73.60
2023-04-19T14:45:26.688Z,74.20
2023-04-19T14:47:55.700Z,75.10
2023-04-19T14:50:22.939Z,77.70
2023-04-19T14:52:50.520Z,77.30
2023-04-19T14:55:17.977Z,77.30
2023-04-19T14:57:45.914Z,77.80
2023-04-19T15:00:13.575Z,76.30
2023-04-19T15:02:41.186Z,76.50
2023-04-19T15:05:09.253Z,78.00
2023-04-19T15:07:41.622Z,77.20
2023-04-19T15:10:09.754Z,76.50
2023-04-19T15:12:37.359Z,78.80
2023-04-19T15:15:06.247Z,80.80
2023-04-19T15:17:35.644Z,79.90
2023-04-19T15:20:04.043Z,78.20
2023-04-19T15:22:32.699Z,76.80
2023-04-19T15:25:03.435Z,77.80
2023-04-19T15:30:12.987Z,76.20
2023-04-19T15:32:41.818Z,75.10
2023-04-19T15:35:11.480Z,74.80
2023-04-19T15:37:41.029Z,73.70
2023-04-19T15:40:12.782Z,74.50
2023-04-19T15:42:43.215Z,74.70
2023-04-19T15:45:11.241Z,75.30
2023-04-19T15:47:38.445Z,75.60
2023-04-19T15:50:06.924Z,76.40
2023-04-19T15:52:34.313Z,76.10
2023-04-19T15:55:01.892Z,76.40
2023-04-19T15:57:29.519Z,77.00
2023-04-19T15:59:56.886Z,75.50
2023-04-19T16:02:24.791Z,74.70
2023-04-19T16:04:52.632Z,75.30
2023-04-19T16:07:19.909Z,76.30
2023-04-19T16:09:47.117Z,76.10
2023-04-19T16:12:14.458Z,76.70
2023-04-19T16:14:42.172Z,75.10
2023-04-19T16:17:10.113Z,75.20
2023-04-19T16:19:37.245Z,75.50
2023-04-19T16:22:05.812Z,75.70
2023-04-19T16:24:33.459Z,76.00
2023-04-19T16:27:03.922Z,75.60
2023-04-19T16:29:31.550Z,77.20
2023-04-19T16:31:59.301Z,77.90
2023-04-19T16:34:27.520Z,78.90
2023-04-19T16:36:55.521Z,79.10
2023-04-19T16:39:23.041Z,78.00
2023-04-19T16:41:51.151Z,78.40
2023-04-19T16:44:19.210Z,78.30
2023-04-19T16:46:46.240Z,79.40
2023-04-19T16:49:16.713Z,81.20
2023-04-19T16:54:28.494Z,82.20
2023-04-19T16:56:56.137Z,82.70
2023-04-19T16:59:24.212Z,82.10
2023-04-19T17:01:56.249Z,82.40
2023-04-19T17:04:26.240Z,81.90
2023-04-19T17:06:58.460Z,82.00
2023-04-19T17:09:25.843Z,83.20
2023-04-19T17:11:57.496Z,84.30
2023-04-19T17:14:36.936Z,84.50
2023-04-19T17:17:04.080Z,85.20
2023-04-19T17:19:32.703Z,84.60
2023-04-19T17:22:05.880Z,85.30
2023-04-19T17:24:36.375Z,85.40
2023-04-19T17:27:06.204Z,85.70
2023-04-19T17:29:33.526Z,86.60
2023-04-19T17:32:11.098Z,87.50
2023-04-19T17:34:38.730Z,88.50
2023-04-19T17:37:08.898Z,86.90
2023-04-19T17:39:35.953Z,86.70
2023-04-19T17:42:03.442Z,87.90
2023-04-19T17:44:31.227Z,88.80
2023-04-19T17:46:58.579Z,89.70
2023-04-19T17:49:27.226Z,90.10
2023-04-19T17:51:56.516Z,90.30
2023-04-19T17:54:25.919Z,90.50
2023-04-19T17:56:53.995Z,90.70
2023-04-19T17:59:23.993Z,90.70
2023-04-19T18:01:51.452Z,91.40
2023-04-19T18:04:21.435Z,91.60
2023-04-19T18:06:49.362Z,92.30
2023-04-19T18:09:19.777Z,92.90
2023-04-19T18:11:47.856Z,93.50
2023-04-19T18:14:15.577Z,94.00
2023-04-19T18:16:42.910Z,94.90
2023-04-19T18:19:10.107Z,95.40
2023-04-19T18:21:37.268Z,95.80
2023-04-19T18:24:05.079Z,95.90
2023-04-19T18:26:42.816Z,96.20
2023-04-19T18:29:11.048Z,96.60
2023-04-19T18:31:38.615Z,96.70
2023-04-19T18:34:05.739Z,97.00
2023-04-19T18:36:46.654Z,96.90
2023-04-19T18:39:14.517Z,97.10
2023-04-19T18:41:42.501Z,97.30
2023-04-19T18:46:39.753Z,98.10
2023-04-19T18:49:07.254Z,98.40
2023-04-19T18:51:34.726Z,98.60
2023-04-19T18:54:01.881Z,99.00
2023-04-19T18:59:00.447Z,99.10
2023-04-19T19:01:27.988Z,99.50
2023-04-19T19:04:23.575Z,99.90
2023-04-19T19:06:43.599Z,99.90
2023-04-19T19:09:11.055Z,99.90
2023-04-19T19:11:55.403Z,99.90
2023-04-19T19:14:27.551Z,99.90
2023-04-19T19:16:54.668Z,99.90
2023-04-19T19:19:22.843Z,99.90
2023-04-19T19:21:50.281Z,99.90
2023-04-19T19:24:17.646Z,99.90
2023-04-19T19:26:45.083Z,99.90
2023-04-19T19:29:16.351Z,99.90
2023-04-19T19:31:44.215Z,99.90
2023-04-19T19:34:24.156Z,99.90
2023-04-19T19:36:54.530Z,99.90
2023-04-19T19:39:22.261Z,99.90
2023-04-19T19:42:05.098Z,99.90
2023-04-19T19:44:33.711Z,99.90
2023-04-19T19:47:01.267Z,99.90
2023-04-19T19:49:29.416Z,99.90
2023-04-19T19:51:59.402Z,99.90
2023-04-19T19:54:27.596Z,99.90
2023-04-19T19:59:30.292Z,99.90
2023-04-19T20:01:59.649Z,99.90
2023-04-19T20:04:27.886Z,99.90
2023-04-19T20:09:29.009Z,99.90
2023-04-19T20:11:56.238Z,99.90
2023-04-19T20:14:24.438Z,99.90
2023-04-19T20:16:52.386Z,99.90
2023-04-19T20:19:19.624Z,99.90
2023-04-19T20:21:47.469Z,99.90
2023-04-19T20:24:14.816Z,99.90
2023-04-19T20:26:42.701Z,99.90
2023-04-19T20:29:10.271Z,99.90
2023-04-19T20:31:37.582Z,99.90
2023-04-19T20:34:04.915Z,99.90
2023-04-19T20:36:32.287Z,99.90
2023-04-19T20:39:02.038Z,99.90
2023-04-19T20:41:29.515Z,99.90
2023-04-19T20:43:59.048Z,99.90
2023-04-19T20:46:26.418Z,99.90
2023-04-19T20:48:54.318Z,99.90
2023-04-19T20:51:24.417Z,99.90
2023-04-19T20:53:51.877Z,99.90
2023-04-19T20:56:19.604Z,99.90
2023-04-19T20:58:47.199Z,99.90
2023-04-19T21:01:17.596Z,99.90
2023-04-19T21:03:46.063Z,99.90
2023-04-19T21:06:13.594Z,99.90
2023-04-19T21:08:41.318Z,99.90
2023-04-19T21:11:09.330Z,99.90
2023-04-19T21:13:37.387Z,99.90
2023-04-19T21:16:05.372Z,99.90
2023-04-19T21:18:32.843Z,99.90
2023-04-19T21:20:59.839Z,99.90
2023-04-19T21:23:27.597Z,99.90
2023-04-19T21:25:55.176Z,99.90
2023-04-19T21:28:23.244Z,99.90
2023-04-19T21:30:51.558Z,99.90
2023-04-19T21:33:19.446Z,99.90
2023-04-19T21:35:46.793Z,99.90
2023-04-19T21:38:16.743Z,99.90
2023-04-19T21:40:44.515Z,99.90
2023-04-19T21:43:12.076Z,99.90
2023-04-19T21:45:39.629Z,99.90
2023-04-19T21:48:06.954Z,99.90
2023-04-19T21:50:34.579Z,99.90
2023-04-19T21:53:04.117Z,99.90
2023-04-19T21:55:32.735Z,99.90
2023-04-19T21:58:02.332Z,99.90
2023-04-19T22:00:29.682Z,99.90
2023-04-19T22:02:57.538Z,99.90
2023-04-19T22:05:25.495Z,99.90
2023-04-19T22:07:53.056Z,99.90
2023-04-19T22:10:34.556Z,99.90
2023-04-19T22:13:09.493Z,99.90
2023-04-19T22:15:37.869Z,99.90
2023-04-19T22:18:05.992Z,99.90
2023-04-19T22:20:34.126Z,99.90
2023-04-19T22:23:01.248Z,99.90
2023-04-19T22:25:28.510Z,99.90
2023-04-19T22:27:56.260Z,99.90
2023-04-19T22:30:24.160Z,99.90
2023-04-19T22:32:51.441Z,99.90
2023-04-19T22:35:22.059Z,99.90
2023-04-19T22:37:50.379Z,99.90
2023-04-19T22:40:18.472Z,99.90
2023-04-19T22:42:45.989Z,99.90
2023-04-19T22:45:13.320Z,99.90
2023-04-19T22:47:40.578Z,99.90
2023-04-19T22:50:09.124Z,99.90
2023-04-19T22:52:37.594Z,99.90
2023-04-19T22:55:11.440Z,99.90
2023-04-19T22:57:39.193Z,99.90
2023-04-19T23:00:07.248Z,99.90
2023-04-19T23:02:34.666Z,99.90
2023-04-19T23:05:02.260Z,99.90
2023-04-19T23:07:29.526Z,99.90
2023-04-19T23:09:56.809Z,99.90
2023-04-19T23:12:24.252Z,99.90
2023-04-19T23:14:51.385Z,99.90
2023-04-19T23:17:19.049Z,99.90
2023-04-19T23:19:46.521Z,99.90
2023-04-19T23:22:13.615Z,99.90
2023-04-19T23:24:41.011Z,99.90
2023-04-19T23:27:08.529Z,99.90
2023-04-19T23:29:35.922Z,99.90
2023-04-19T23:32:03.349Z,99.90
2023-04-19T23:34:30.922Z,99.90
2023-04-19T23:36:58.560Z,99.90
2023-04-19T23:39:30.822Z,99.90
2023-04-19T23:42:02.155Z,99.90
2023-04-19T23:44:30.344Z,99.90
2023-04-19T23:46:57.557Z,99.90
2023-04-19T23:49:25.252Z,99.90
2023-04-19T23:51:52.565Z,99.90
2023-04-19T23:54:22.429Z,99.90
2023-04-19T23:56:50.171Z,99.90
2023-04-19T23:59:19.348Z,99.90
